createdAt,value
2023-05-10T00:00:14.315Z,59.20
2023-05-10T00:03:01.835Z,59.60
2023-05-10T00:05:29.391Z,59.60
2023-05-10T00:07:56.599Z,59.70
2023-05-10T00:10:24.404Z,59.80
2023-05-10T00:12:51.666Z,59.80
2023-05-10T00:15:19.314Z,59.40
2023-05-10T00:17:46.519Z,59.70
2023-05-10T00:20:14.238Z,60.00
2023-05-10T00:22:41.690Z,59.60
2023-05-10T00:25:10.268Z,59.30
2023-05-10T00:27:37.796Z,59.60
2023-05-10T00:30:05.921Z,59.60
2023-05-10T00:32:33.778Z,59.50
2023-05-10T00:35:01.435Z,59.70
2023-05-10T00:37:28.755Z,59.90
2023-05-10T00:39:56.399Z,60.00
2023-05-10T00:42:23.814Z,60.00
2023-05-10T00:44:53.625Z,60.00
2023-05-10T00:47:20.984Z,59.70
2023-05-10T00:49:48.647Z,60.00
2023-05-10T00:52:16.250Z,59.90
2023-05-10T00:54:43.834Z,60.20
2023-05-10T00:57:12.286Z,60.30
2023-05-10T00:59:39.849Z,60.00
2023-05-10T01:02:08.125Z,59.90
2023-05-10T01:04:36.478Z,60.00
2023-05-10T01:07:04.199Z,60.00
2023-05-10T01:09:32.039Z,60.20
2023-05-10T01:12:00.400Z,60.40
2023-05-10T01:14:28.567Z,60.20
2023-05-10T01:16:56.764Z,60.20
2023-05-10T01:19:27.828Z,60.20
2023-05-10T01:22:12.813Z,60.30
2023-05-10T01:25:01.719Z,60.10
2023-05-10T01:27:47.540Z,60.20
2023-05-10T01:30:40.445Z,60.30
2023-05-10T01:33:16.967Z,60.20
2023-05-10T01:36:07.998Z,60.10
2023-05-10T01:38:58.437Z,60.10
2023-05-10T01:41:37.434Z,60.30
2023-05-10T01:44:13.634Z,60.10
2023-05-10T01:46:41.939Z,60.10
2023-05-10T01:49:16.332Z,60.20
2023-05-10T01:51:50.013Z,60.60
2023-05-10T01:54:20.573Z,60.70
2023-05-10T01:56:56.390Z,60.80
2023-05-10T01:59:27.773Z,60.70
2023-05-10T02:01:57.441Z,60.60
2023-05-10T02:04:25.780Z,60.90
2023-05-10T02:06:55.174Z,61.00
2023-05-10T02:09:23.351Z,61.00
2023-05-10T02:11:51.950Z,61.00
2023-05-10T02:14:20.911Z,61.10
2023-05-10T02:16:51.874Z,61.00
2023-05-10T02:19:21.023Z,61.10
2023-05-10T02:21:50.100Z,61.20
2023-05-10T02:24:17.626Z,61.30
2023-05-10T02:26:46.327Z,61.10
2023-05-10T02:29:16.708Z,61.20
2023-05-10T02:31:44.959Z,60.90
2023-05-10T02:34:13.745Z,61.30
2023-05-10T02:36:42.788Z,61.70
2023-05-10T02:39:13.693Z,61.20
2023-05-10T02:41:46.341Z,61.40
2023-05-10T02:44:16.961Z,61.20
2023-05-10T02:46:44.800Z,61.60
2023-05-10T02:49:12.212Z,61.50
2023-05-10T02:51:44.886Z,61.60
2023-05-10T02:54:19.330Z,61.50
2023-05-10T02:56:54.785Z,61.50
2023-05-10T02:59:22.130Z,61.80
2023-05-10T03:01:49.734Z,61.80
2023-05-10T03:04:17.189Z,62.00
2023-05-10T03:06:45.812Z,62.20
2023-05-10T03:09:16.275Z,62.10
2023-05-10T03:12:04.865Z,62.30
2023-05-10T03:15:20.555Z,62.40
2023-05-10T03:17:55.727Z,62.50
2023-05-10T03:20:30.310Z,61.90
2023-05-10T03:23:12.234Z,62.40
2023-05-10T03:25:41.107Z,62.40
2023-05-10T03:28:09.821Z,62.20
2023-05-10T03:30:38.282Z,62.10
2023-05-10T03:33:09.789Z,62.20
2023-05-10T03:35:40.989Z,62.20
2023-05-10T03:38:08.643Z,61.80
2023-05-10T03:40:35.969Z,61.80
2023-05-10T03:43:03.523Z,61.60
2023-05-10T03:45:31.732Z,61.90
2023-05-10T03:48:00.529Z,61.60
2023-05-10T03:50:28.038Z,61.70
2023-05-10T03:52:56.154Z,61.50
2023-05-10T03:55:23.575Z,61.40
2023-05-10T03:57:51.686Z,61.10
2023-05-10T04:00:19.232Z,61.20
2023-05-10T04:02:51.142Z,60.90
2023-05-10T04:05:21.560Z,61.10
2023-05-10T04:07:50.346Z,60.70
2023-05-10T04:10:19.013Z,60.70
2023-05-10T04:12:46.729Z,60.60
2023-05-10T04:15:14.109Z,60.40
2023-05-10T04:17:41.622Z,60.20
2023-05-10T04:20:09.399Z,60.20
2023-05-10T04:22:36.919Z,60.10
2023-05-10T04:25:04.596Z,60.00
2023-05-10T04:27:32.130Z,59.40
2023-05-10T04:29:59.317Z,59.40
2023-05-10T04:32:26.877Z,59.70
2023-05-10T04:34:54.208Z,59.40
2023-05-10T04:37:22.465Z,59.10
2023-05-10T04:39:50.162Z,59.00
2023-05-10T04:42:17.655Z,59.00
2023-05-10T04:44:45.164Z,59.00
2023-05-10T04:47:14.265Z,58.40
2023-05-10T04:49:41.467Z,58.60
2023-05-10T04:52:08.932Z,58.50
2023-05-10T04:54:36.284Z,58.40
2023-05-10T04:57:03.774Z,58.10
2023-05-10T04:59:31.014Z,57.80
2023-05-10T05:01:58.528Z,58.00
2023-05-10T05:04:26.076Z,57.40
2023-05-10T05:06:54.129Z,57.60
2023-05-10T05:09:21.348Z,57.70
2023-05-10T05:11:49.478Z,57.10
2023-05-10T05:14:16.689Z,57.30
2023-05-10T05:16:44.358Z,57.20
2023-05-10T05:19:11.774Z,56.90
2023-05-10T05:21:39.664Z,57.20
2023-05-10T05:24:07.254Z,57.00
2023-05-10T05:26:34.940Z,56.50
2023-05-10T05:29:02.497Z,56.40
2023-05-10T05:31:33.193Z,56.50
2023-05-10T05:34:00.719Z,56.70
2023-05-10T05:36:28.156Z,56.60
2023-05-10T05:38:55.930Z,56.10
2023-05-10T05:41:24.929Z,56.30
2023-05-10T05:43:52.266Z,56.10
2023-05-10T05:46:19.951Z,56.50
2023-05-10T05:48:49.955Z,56.00
2023-05-10T05:51:17.507Z,56.50
2023-05-10T05:53:44.850Z,56.20
2023-05-10T05:56:12.284Z,56.10
2023-05-10T05:58:39.645Z,56.70
2023-05-10T06:01:09.927Z,56.60
2023-05-10T06:03:37.258Z,56.10
2023-05-10T06:06:08.131Z,56.20
2023-05-10T06:08:35.555Z,56.20
2023-05-10T06:11:03.231Z,55.80
2023-05-10T06:13:33.451Z,56.10
2023-05-10T06:16:01.671Z,56.60
2023-05-10T06:18:28.999Z,56.60
2023-05-10T06:20:56.703Z,56.50
2023-05-10T06:23:24.017Z,56.00
2023-05-10T06:25:51.862Z,56.10
2023-05-10T06:28:19.145Z,56.10
2023-05-10T06:30:46.733Z,56.20
2023-05-10T06:33:14.286Z,55.50
2023-05-10T06:35:41.898Z,55.50
2023-05-10T06:38:09.184Z,55.70
2023-05-10T06:40:37.058Z,55.70
2023-05-10T06:43:04.426Z,56.20
2023-05-10T06:45:32.055Z,56.10
2023-05-10T06:47:59.398Z,56.80
2023-05-10T06:50:27.091Z,56.90
2023-05-10T06:52:54.533Z,56.30
2023-05-10T06:55:22.318Z,56.40
2023-05-10T06:57:49.625Z,56.00
2023-05-10T07:00:18.153Z,55.80
2023-05-10T07:02:45.793Z,55.50
2023-05-10T07:05:13.889Z,56.60
2023-05-10T07:07:41.350Z,55.40
2023-05-10T07:10:09.351Z,55.40
2023-05-10T07:12:36.718Z,55.60
2023-05-10T07:15:05.247Z,56.00
2023-05-10T07:17:34.390Z,55.70
2023-05-10T07:20:02.794Z,55.70
2023-05-10T07:22:30.237Z,55.20
2023-05-10T07:24:58.114Z,56.10
2023-05-10T07:27:25.525Z,55.90
2023-05-10T07:29:52.947Z,55.60
2023-05-10T07:32:20.230Z,55.80
2023-05-10T07:34:47.917Z,55.40
2023-05-10T07:37:15.361Z,54.90
2023-05-10T07:39:42.877Z,55.70
2023-05-10T07:42:10.389Z,54.50
2023-05-10T07:44:37.845Z,55.00
2023-05-10T07:47:05.157Z,55.50
2023-05-10T07:49:32.718Z,55.00
2023-05-10T07:51:59.977Z,54.30
2023-05-10T07:54:27.826Z,55.00
2023-05-10T07:56:55.027Z,54.60
2023-05-10T07:59:22.564Z,54.40
2023-05-10T08:01:49.862Z,53.40
2023-05-10T08:04:17.366Z,53.00
2023-05-10T08:06:44.683Z,53.20
2023-05-10T08:09:12.260Z,53.00
2023-05-10T08:11:39.679Z,53.20
2023-05-10T08:14:07.397Z,53.00
2023-05-10T08:16:35.521Z,52.90
2023-05-10T08:19:03.148Z,52.20
2023-05-10T08:21:32.182Z,51.70
2023-05-10T08:23:59.966Z,51.70
2023-05-10T08:26:27.473Z,51.70
2023-05-10T08:28:54.990Z,50.80
2023-05-10T10:26:27.637Z,50.10
2023-05-10T11:33:17.961Z,44.50
2023-05-10T11:35:48.212Z,41.10
2023-05-10T11:38:15.982Z,41.40
2023-05-10T12:15:40.121Z,41.50
2023-05-10T12:18:09.257Z,42.10
2023-05-10T12:20:37.369Z,41.80
2023-05-10T12:23:04.845Z,42.00
2023-05-10T12:25:39.723Z,42.20
2023-05-10T12:28:09.420Z,41.10
2023-05-10T12:30:38.355Z,40.80
2023-05-10T12:33:09.462Z,41.30
2023-05-10T12:35:54.774Z,41.90
2023-05-10T12:38:36.533Z,41.10
2023-05-10T12:41:04.897Z,41.40
2023-05-10T12:43:32.582Z,42.80
2023-05-10T12:46:06.257Z,43.30
2023-05-10T12:48:35.094Z,42.00
2023-05-10T12:51:03.728Z,42.30
2023-05-10T12:53:31.189Z,40.10
2023-05-10T12:55:58.948Z,41.10
2023-05-10T12:58:34.815Z,41.60
2023-05-10T13:01:04.173Z,41.20
2023-05-10T13:06:01.601Z,40.40
2023-05-10T13:08:30.789Z,39.40
2023-05-10T13:10:58.330Z,40.20
2023-05-10T13:13:25.635Z,40.20
2023-05-10T13:15:53.248Z,39.90
2023-05-10T13:18:20.956Z,39.40
2023-05-10T13:20:50.609Z,40.00
2023-05-10T13:23:17.848Z,39.70
2023-05-10T13:25:45.383Z,39.70
2023-05-10T13:28:15.030Z,39.50
2023-05-10T13:30:42.633Z,40.70
2023-05-10T13:33:10.012Z,40.30
2023-05-10T13:35:37.540Z,40.30
2023-05-10T13:38:05.057Z,40.20
2023-05-10T13:40:32.554Z,40.00
2023-05-10T13:42:59.857Z,40.70
2023-05-10T13:45:27.452Z,41.00
2023-05-10T13:47:55.534Z,40.30
2023-05-10T13:50:24.279Z,40.30
2023-05-10T13:52:51.562Z,40.30
2023-05-10T13:55:19.503Z,40.10
2023-05-10T13:57:47.424Z,39.80
2023-05-10T14:00:15.771Z,39.50
2023-05-10T14:02:43.130Z,39.60
2023-05-10T14:05:11.182Z,39.30
2023-05-10T14:07:38.933Z,39.10
2023-05-10T14:10:07.747Z,39.60
2023-05-10T14:12:35.671Z,39.60
2023-05-10T14:15:03.590Z,39.10
2023-05-10T14:17:31.432Z,38.50
2023-05-10T14:22:27.152Z,38.20
2023-05-10T14:24:54.603Z,37.20
2023-05-10T14:27:22.105Z,36.80
2023-05-10T14:29:49.813Z,35.60
2023-05-10T14:32:17.132Z,33.50
2023-05-10T14:34:44.957Z,31.70
2023-05-10T14:37:15.209Z,27.90
2023-05-10T14:39:43.494Z,27.90
2023-05-10T14:42:11.092Z,26.20
2023-05-10T14:49:39.617Z,24.90
2023-05-10T14:54:36.362Z,25.70
2023-05-10T15:31:52.409Z,25.10
2023-05-10T15:36:47.645Z,23.30
2023-05-10T15:39:15.903Z,24.10
2023-05-10T15:44:14.335Z,23.80
2023-05-10T15:46:41.944Z,23.80
2023-05-10T15:49:10.343Z,23.00
2023-05-10T15:51:38.784Z,23.00
2023-05-10T16:06:32.762Z,23.10
2023-05-10T16:09:00.291Z,22.20
2023-05-10T16:11:27.593Z,22.90
2023-05-10T16:13:55.432Z,22.90
2023-05-10T16:16:22.865Z,23.50
2023-05-10T16:18:52.392Z,23.40
2023-05-10T16:21:19.843Z,23.10
2023-05-10T16:23:47.418Z,22.90
2023-05-10T16:26:14.740Z,23.60
2023-05-10T16:28:42.236Z,23.80
2023-05-10T16:31:09.783Z,23.50
2023-05-10T16:33:37.596Z,23.40
2023-05-10T16:36:06.156Z,23.30
2023-05-10T16:38:33.686Z,23.30
2023-05-10T16:41:03.627Z,23.90
2023-05-10T16:43:32.690Z,23.50
2023-05-10T16:46:00.309Z,23.50
2023-05-10T16:48:28.212Z,23.70
2023-05-10T16:50:55.569Z,23.50
2023-05-10T16:53:23.076Z,23.70
2023-05-10T16:55:50.452Z,23.30
2023-05-10T16:58:18.007Z,23.70
2023-05-10T17:00:45.460Z,23.80
2023-05-10T17:03:13.150Z,23.70
2023-05-10T17:05:41.256Z,23.60
2023-05-10T17:08:09.630Z,23.90
2023-05-10T17:10:39.697Z,24.10
2023-05-10T17:13:10.070Z,24.10
2023-05-10T17:15:38.763Z,24.50
2023-05-10T17:18:07.538Z,24.40
2023-05-10T17:20:35.055Z,24.50
2023-05-10T17:23:03.346Z,24.60
2023-05-10T17:25:30.833Z,24.90
2023-05-10T17:27:58.396Z,24.40
2023-05-10T17:30:28.188Z,24.80
2023-05-10T17:32:56.295Z,25.60
2023-05-10T17:35:24.177Z,25.60
2023-05-10T17:37:51.825Z,26.90
2023-05-10T17:40:19.320Z,28.30
2023-05-10T17:42:47.028Z,29.40
2023-05-10T17:45:14.917Z,30.90
2023-05-10T17:47:42.722Z,30.90
2023-05-10T17:50:10.480Z,31.80
2023-05-10T17:52:38.095Z,36.50
2023-05-10T17:55:05.930Z,33.00
2023-05-10T17:57:33.643Z,33.80
2023-05-10T18:00:02.250Z,48.80
2023-05-10T18:02:32.862Z,35.00
2023-05-10T18:05:01.714Z,35.30
2023-05-10T18:07:32.683Z,37.20
2023-05-10T18:10:01.132Z,47.40
2023-05-10T18:12:31.338Z,56.10
2023-05-10T18:14:59.172Z,56.30
2023-05-10T18:17:27.089Z,37.90
2023-05-10T18:19:54.298Z,37.80
2023-05-10T18:22:22.684Z,38.00
2023-05-10T18:24:49.913Z,38.50
2023-05-10T18:27:18.020Z,38.90
2023-05-10T18:29:45.665Z,39.20
2023-05-10T18:32:13.122Z,39.30
2023-05-10T18:34:40.382Z,39.40
2023-05-10T18:37:08.146Z,39.90
2023-05-10T18:39:37.265Z,40.30
2023-05-10T18:42:08.520Z,41.70
2023-05-10T18:44:36.624Z,40.40
2023-05-10T18:47:04.521Z,40.90
2023-05-10T18:49:32.357Z,41.30
2023-05-10T18:52:00.801Z,40.80
2023-05-10T18:54:28.198Z,41.30
2023-05-10T18:56:58.625Z,41.50
2023-05-10T18:59:27.840Z,44.50
2023-05-10T19:01:57.108Z,43.70
2023-05-10T19:04:24.845Z,45.20
2023-05-10T19:06:52.903Z,46.30
2023-05-10T19:09:21.078Z,46.70
2023-05-10T19:11:48.753Z,47.30
2023-05-10T19:14:16.338Z,47.80
2023-05-10T19:16:43.918Z,49.20
2023-05-10T19:19:12.256Z,49.10
2023-05-10T19:21:40.296Z,47.80
2023-05-10T19:24:07.927Z,49.60
2023-05-10T19:26:36.292Z,49.80
2023-05-10T19:29:03.721Z,48.00
2023-05-10T19:31:33.507Z,47.60
2023-05-10T19:34:01.156Z,43.10
2023-05-10T19:36:28.833Z,42.60
2023-05-10T19:38:56.014Z,43.20
2023-05-10T19:41:24.207Z,42.90
2023-05-10T19:43:52.056Z,43.30
2023-05-10T19:46:20.368Z,43.70
2023-05-10T19:48:51.975Z,43.80
2023-05-10T19:51:19.574Z,44.10
2023-05-10T19:53:47.252Z,44.20
2023-05-10T19:56:14.959Z,44.50
2023-05-10T19:58:43.319Z,44.70
2023-05-10T20:01:11.763Z,45.00
2023-05-10T20:03:39.033Z,45.10
2023-05-10T20:06:06.668Z,45.20
2023-05-10T20:08:33.950Z,45.20
2023-05-10T20:11:03.540Z,45.30
2023-05-10T20:13:31.068Z,45.40
2023-05-10T20:15:59.776Z,45.80
2023-05-10T20:18:27.646Z,46.10
2023-05-10T20:20:56.165Z,46.50
2023-05-10T20:23:23.445Z,46.90
2023-05-10T20:25:51.400Z,47.10
2023-05-10T20:28:23.056Z,48.00
2023-05-10T20:30:54.723Z,48.50
2023-05-10T20:33:25.191Z,49.10
2023-05-10T20:35:52.767Z,49.40
2023-05-10T20:38:19.997Z,49.80
2023-05-10T20:40:47.610Z,49.40
2023-05-10T20:43:14.852Z,49.80
2023-05-10T20:45:42.627Z,50.00
2023-05-10T20:48:09.982Z,50.00
2023-05-10T20:50:37.617Z,50.20
2023-05-10T20:53:05.058Z,51.00
2023-05-10T20:55:32.964Z,50.40
2023-05-10T20:58:01.541Z,50.50
2023-05-10T21:00:30.542Z,50.90
2023-05-10T21:02:57.932Z,50.90
2023-05-10T21:05:25.660Z,50.70
2023-05-10T21:07:54.247Z,51.10
2023-05-10T21:10:23.077Z,51.00
2023-05-10T21:12:50.518Z,51.20
2023-05-10T21:15:18.080Z,51.00
2023-05-10T21:17:45.829Z,50.80
2023-05-10T21:20:13.875Z,51.40
2023-05-10T21:22:41.089Z,51.10
2023-05-10T21:25:08.976Z,51.20
2023-05-10T21:27:36.270Z,50.90
2023-05-10T21:30:04.000Z,51.20
2023-05-10T21:32:31.320Z,51.30
2023-05-10T21:34:59.158Z,51.00
2023-05-10T21:37:26.404Z,51.00
2023-05-10T21:39:54.186Z,51.50
2023-05-10T21:42:21.429Z,51.40
2023-05-10T21:44:48.957Z,51.30
2023-05-10T21:47:17.276Z,51.30
2023-05-10T21:49:45.127Z,51.20
2023-05-10T21:52:12.549Z,51.50
2023-05-10T21:54:40.378Z,51.20
2023-05-10T21:57:07.715Z,51.20
2023-05-10T21:59:35.384Z,51.30
2023-05-10T22:02:02.593Z,51.10
2023-05-10T22:04:30.088Z,51.20
2023-05-10T22:06:57.545Z,51.00
2023-05-10T22:09:25.471Z,51.20
2023-05-10T22:11:52.695Z,51.10
2023-05-10T22:14:20.266Z,51.20
2023-05-10T22:16:47.555Z,51.20
2023-05-10T22:19:15.049Z,51.50
2023-05-10T22:21:44.652Z,51.60
2023-05-10T22:24:12.120Z,51.80
2023-05-10T22:26:39.368Z,51.90
2023-05-10T22:29:07.003Z,51.90
2023-05-10T22:31:34.485Z,51.90
2023-05-10T22:34:02.249Z,51.90
2023-05-10T22:36:30.397Z,52.10
2023-05-10T22:38:58.314Z,52.30
2023-05-10T22:41:25.719Z,52.30
2023-05-10T22:43:53.479Z,52.60
2023-05-10T22:46:20.792Z,52.60
2023-05-10T22:48:48.857Z,52.50
2023-05-10T22:51:16.424Z,52.70
2023-05-10T22:53:45.348Z,52.70
2023-05-10T22:56:13.175Z,52.70
2023-05-10T22:58:41.014Z,52.90
2023-05-10T23:01:08.977Z,53.40
2023-05-10T23:03:36.783Z,53.40
2023-05-10T23:06:04.440Z,53.50
2023-05-10T23:08:32.346Z,53.40
2023-05-10T23:10:59.579Z,53.30
2023-05-10T23:13:27.223Z,53.50
2023-05-10T23:15:54.471Z,53.80
2023-05-10T23:18:22.429Z,53.60
2023-05-10T23:20:49.676Z,53.70
2023-05-10T23:23:17.337Z,53.70
2023-05-10T23:25:44.723Z,53.80
2023-05-10T23:28:12.316Z,53.80
2023-05-10T23:30:39.680Z,53.80
2023-05-10T23:33:08.476Z,53.60
2023-05-10T23:35:35.756Z,53.70
2023-05-10T23:38:03.309Z,53.70
2023-05-10T23:40:30.603Z,53.80
2023-05-10T23:42:58.207Z,53.90
2023-05-10T23:45:25.610Z,53.90
2023-05-10T23:47:53.194Z,53.80
2023-05-10T23:50:20.513Z,54.20
2023-05-10T23:52:48.388Z,54.20
2023-05-10T23:55:15.981Z,53.90
2023-05-10T23:57:43.644Z,54.30
